Ocotillo, California
Current Conditions -  °F | °C
As of 1:56 PM on Sunday 25 Jan 2015 (Local Time) from KNJK Reporting Station
Clear Clear  
Wind Chill: 80°   Ceiling: Unl
Heat Index: 80°   Visibility: 10mi
Dew Point: 25°   Wind: 7mph
Humidity: 13%   Direction: 340°NNW
Pressure: 30.01"   Gusts: NA
Location:  32.74°N, 115.99°W
Report Text: KNJK 252156Z AUTO 34006KT 10SM CLR 27/M04 A3001 RMK AO2 SLP178 T02671039 $
Loading
Personal Weather Stations






























Interactive Weather Map New forecast layout! Learn more

10-Day Weather Forecast

Advertisements
Track Severe Weather on mobile